sensor_id;sensor_type;location;lat;lon;timestamp;pressure;altitude;pressure_sealevel;temperature
4421;BMP180;11824;51.178;13.546;2023-09-19T00:02:03;99531.00;;;17.20
4421;BMP180;11824;51.178;13.546;2023-09-19T00:04:34;99531.00;;;17.20
4421;BMP180;11824;51.178;13.546;2023-09-19T00:07:07;99533.00;;;17.20
4421;BMP180;11824;51.178;13.546;2023-09-19T00:09:39;99534.00;;;17.20
4421;BMP180;11824;51.178;13.546;2023-09-19T00:12:10;99523.00;;;17.20
4421;BMP180;11824;51.178;13.546;2023-09-19T00:14:41;99525.00;;;17.20
4421;BMP180;11824;51.178;13.546;2023-09-19T00:17:10;99522.00;;;17.10
4421;BMP180;11824;51.178;13.546;2023-09-19T00:19:43;99513.00;;;17.10
4421;BMP180;11824;51.178;13.546;2023-09-19T00:22:15;99507.00;;;17.10
4421;BMP180;11824;51.178;13.546;2023-09-19T00:24:46;99508.00;;;17.10
4421;BMP180;11824;51.178;13.546;2023-09-19T00:27:22;99506.00;;;17.10
4421;BMP180;11824;51.178;13.546;2023-09-19T00:29:59;99491.00;;;17.10
4421;BMP180;11824;51.178;13.546;2023-09-19T00:32:31;99498.00;;;17.10
4421;BMP180;11824;51.178;13.546;2023-09-19T00:35:00;99497.00;;;17.10
4421;BMP180;11824;51.178;13.546;2023-09-19T00:37:30;99490.00;;;17.10
4421;BMP180;11824;51.178;13.546;2023-09-19T00:40:00;99490.00;;;17.10
4421;BMP180;11824;51.178;13.546;2023-09-19T00:42:33;99490.00;;;17.10
4421;BMP180;11824;51.178;13.546;2023-09-19T00:45:06;99507.00;;;17.10
4421;BMP180;11824;51.178;13.546;2023-09-19T00:47:37;99500.00;;;17.10
4421;BMP180;11824;51.178;13.546;2023-09-19T00:50:12;99494.00;;;17.10
4421;BMP180;11824;51.178;13.546;2023-09-19T00:52:45;99496.00;;;17.20
4421;BMP180;11824;51.178;13.546;2023-09-19T00:55:17;99499.00;;;17.10
4421;BMP180;11824;51.178;13.546;2023-09-19T00:57:49;99496.00;;;17.10
4421;BMP180;11824;51.178;13.546;2023-09-19T01:00:19;99494.00;;;17.20
4421;BMP180;11824;51.178;13.546;2023-09-19T01:02:54;99497.00;;;17.20
4421;BMP180;11824;51.178;13.546;2023-09-19T01:05:25;99500.00;;;17.20
4421;BMP180;11824;51.178;13.546;2023-09-19T01:07:54;99503.00;;;17.20
4421;BMP180;11824;51.178;13.546;2023-09-19T01:10:25;99499.00;;;17.20
4421;BMP180;11824;51.178;13.546;2023-09-19T01:13:05;99504.00;;;17.20
4421;BMP180;11824;51.178;13.546;2023-09-19T01:15:44;99515.00;;;17.20
4421;BMP180;11824;51.178;13.546;2023-09-19T01:18:21;99521.00;;;17.20
4421;BMP180;11824;51.178;13.546;2023-09-19T01:21:04;99509.00;;;17.20
4421;BMP180;11824;51.178;13.546;2023-09-19T01:27:12;99515.00;;;17.20
4421;BMP180;11824;51.178;13.546;2023-09-19T01:29:48;99514.00;;;17.20
4421;BMP180;11824;51.178;13.546;2023-09-19T01:32:20;99514.00;;;17.30
4421;BMP180;11824;51.178;13.546;2023-09-19T01:34:53;99507.00;;;17.30
4421;BMP180;11824;51.178;13.546;2023-09-19T01:37:24;99517.00;;;17.30
4421;BMP180;11824;51.178;13.546;2023-09-19T01:39:58;99513.00;;;17.40
4421;BMP180;11824;51.178;13.546;2023-09-19T01:42:41;99524.00;;;17.40
4421;BMP180;11824;51.178;13.546;2023-09-19T01:45:17;99521.00;;;17.40
4421;BMP180;11824;51.178;13.546;2023-09-19T01:48:10;99525.00;;;17.50
4421;BMP180;11824;51.178;13.546;2023-09-19T01:50:52;99519.00;;;17.50
4421;BMP180;11824;51.178;13.546;2023-09-19T01:53:33;99520.00;;;17.50
4421;BMP180;11824;51.178;13.546;2023-09-19T01:56:08;99524.00;;;17.50
4421;BMP180;11824;51.178;13.546;2023-09-19T01:58:46;99520.00;;;17.60
4421;BMP180;11824;51.178;13.546;2023-09-19T02:01:23;99522.00;;;17.60
4421;BMP180;11824;51.178;13.546;2023-09-19T02:03:56;99518.00;;;17.60
4421;BMP180;11824;51.178;13.546;2023-09-19T02:06:25;99526.00;;;17.60
4421;BMP180;11824;51.178;13.546;2023-09-19T02:08:55;99523.00;;;17.60
4421;BMP180;11824;51.178;13.546;2023-09-19T02:11:24;99523.00;;;17.60
4421;BMP180;11824;51.178;13.546;2023-09-19T02:13:53;99520.00;;;17.60
4421;BMP180;11824;51.178;13.546;2023-09-19T02:16:23;99529.00;;;17.70
4421;BMP180;11824;51.178;13.546;2023-09-19T02:18:52;99529.00;;;17.70
4421;BMP180;11824;51.178;13.546;2023-09-19T02:21:25;99522.00;;;17.80
4421;BMP180;11824;51.178;13.546;2023-09-19T02:24:00;99526.00;;;17.80
4421;BMP180;11824;51.178;13.546;2023-09-19T02:26:32;99525.00;;;17.90
4421;BMP180;11824;51.178;13.546;2023-09-19T02:29:07;99531.00;;;17.90
4421;BMP180;11824;51.178;13.546;2023-09-19T02:31:42;99532.00;;;17.90
4421;BMP180;11824;51.178;13.546;2023-09-19T02:34:14;99540.00;;;18.00
4421;BMP180;11824;51.178;13.546;2023-09-19T02:36:49;99543.00;;;18.00
4421;BMP180;11824;51.178;13.546;2023-09-19T02:39:19;99543.00;;;18.10
4421;BMP180;11824;51.178;13.546;2023-09-19T02:41:49;99556.00;;;18.10
4421;BMP180;11824;51.178;13.546;2023-09-19T02:44:19;99549.00;;;18.20
4421;BMP180;11824;51.178;13.546;2023-09-19T02:46:48;99550.00;;;18.20
4421;BMP180;11824;51.178;13.546;2023-09-19T02:49:19;99562.00;;;18.20
4421;BMP180;11824;51.178;13.546;2023-09-19T02:51:50;99562.00;;;18.30
4421;BMP180;11824;51.178;13.546;2023-09-19T02:54:19;99553.00;;;18.30
4421;BMP180;11824;51.178;13.546;2023-09-19T02:56:58;99549.00;;;18.30
4421;BMP180;11824;51.178;13.546;2023-09-19T02:59:28;99560.00;;;18.30
4421;BMP180;11824;51.178;13.546;2023-09-19T03:02:01;99552.00;;;18.30
4421;BMP180;11824;51.178;13.546;2023-09-19T03:04:32;99545.00;;;18.30
4421;BMP180;11824;51.178;13.546;2023-09-19T03:07:04;99557.00;;;18.40
4421;BMP180;11824;51.178;13.546;2023-09-19T03:09:35;99574.00;;;18.40
4421;BMP180;11824;51.178;13.546;2023-09-19T03:12:07;99572.00;;;18.40
4421;BMP180;11824;51.178;13.546;2023-09-19T03:14:45;99584.00;;;18.40
4421;BMP180;11824;51.178;13.546;2023-09-19T03:17:15;99585.00;;;18.40
4421;BMP180;11824;51.178;13.546;2023-09-19T03:19:47;99597.00;;;18.40
4421;BMP180;11824;51.178;13.546;2023-09-19T03:22:30;99586.00;;;18.40
4421;BMP180;11824;51.178;13.546;2023-09-19T03:25:00;99586.00;;;18.30
4421;BMP180;11824;51.178;13.546;2023-09-19T03:27:31;99594.00;;;18.30
4421;BMP180;11824;51.178;13.546;2023-09-19T03:30:00;99586.00;;;18.30
4421;BMP180;11824;51.178;13.546;2023-09-19T03:32:35;99585.00;;;18.30
4421;BMP180;11824;51.178;13.546;2023-09-19T03:35:05;99598.00;;;18.20
4421;BMP180;11824;51.178;13.546;2023-09-19T03:37:36;99590.00;;;18.20
4421;BMP180;11824;51.178;13.546;2023-09-19T03:40:06;99588.00;;;18.20
4421;BMP180;11824;51.178;13.546;2023-09-19T03:42:38;99595.00;;;18.20
4421;BMP180;11824;51.178;13.546;2023-09-19T03:45:08;99601.00;;;18.20
4421;BMP180;11824;51.178;13.546;2023-09-19T03:47:40;99594.00;;;18.20
4421;BMP180;11824;51.178;13.546;2023-09-19T03:50:10;99601.00;;;18.20
4421;BMP180;11824;51.178;13.546;2023-09-19T03:52:46;99599.00;;;18.20
4421;BMP180;11824;51.178;13.546;2023-09-19T03:55:21;99591.00;;;18.20
4421;BMP180;11824;51.178;13.546;2023-09-19T03:57:51;99591.00;;;18.10
4421;BMP180;11824;51.178;13.546;2023-09-19T04:00:23;99598.00;;;18.10
4421;BMP180;11824;51.178;13.546;2023-09-19T04:02:56;99591.00;;;18.10
4421;BMP180;11824;51.178;13.546;2023-09-19T04:05:26;99589.00;;;18.10
4421;BMP180;11824;51.178;13.546;2023-09-19T04:07:56;99601.00;;;18.10
4421;BMP180;11824;51.178;13.546;2023-09-19T04:10:25;99603.00;;;18.10
4421;BMP180;11824;51.178;13.546;2023-09-19T04:12:55;99601.00;;;18.10
4421;BMP180;11824;51.178;13.546;2023-09-19T04:15:24;99606.00;;;18.10
4421;BMP180;11824;51.178;13.546;2023-09-19T04:17:53;99604.00;;;18.10
4421;BMP180;11824;51.178;13.546;2023-09-19T04:20:23;99599.00;;;18.10
4421;BMP180;11824;51.178;13.546;2023-09-19T04:22:53;99607.00;;;18.10
4421;BMP180;11824;51.178;13.546;2023-09-19T04:25:23;99608.00;;;18.00
4421;BMP180;11824;51.178;13.546;2023-09-19T04:27:54;99615.00;;;18.00
4421;BMP180;11824;51.178;13.546;2023-09-19T04:30:23;99620.00;;;18.00
4421;BMP180;11824;51.178;13.546;2023-09-19T04:32:52;99624.00;;;18.00
4421;BMP180;11824;51.178;13.546;2023-09-19T04:35:21;99628.00;;;18.00
4421;BMP180;11824;51.178;13.546;2023-09-19T04:37:51;99628.00;;;17.90
4421;BMP180;11824;51.178;13.546;2023-09-19T04:40:24;99633.00;;;17.90
4421;BMP180;11824;51.178;13.546;2023-09-19T04:42:57;99632.00;;;17.90
4421;BMP180;11824;51.178;13.546;2023-09-19T04:45:28;99650.00;;;17.90
4421;BMP180;11824;51.178;13.546;2023-09-19T04:48:01;99646.00;;;17.90
4421;BMP180;11824;51.178;13.546;2023-09-19T04:50:31;99643.00;;;17.90
4421;BMP180;11824;51.178;13.546;2023-09-19T04:53:05;99643.00;;;17.90
4421;BMP180;11824;51.178;13.546;2023-09-19T04:55:40;99643.00;;;17.90
4421;BMP180;11824;51.178;13.546;2023-09-19T04:58:18;99646.00;;;17.90
4421;BMP180;11824;51.178;13.546;2023-09-19T05:00:51;99648.00;;;17.90
4421;BMP180;11824;51.178;13.546;2023-09-19T05:03:20;99668.00;;;17.90
4421;BMP180;11824;51.178;13.546;2023-09-19T05:05:50;99655.00;;;17.90
4421;BMP180;11824;51.178;13.546;2023-09-19T05:08:18;99655.00;;;17.90
4421;BMP180;11824;51.178;13.546;2023-09-19T05:10:51;99667.00;;;17.90
4421;BMP180;11824;51.178;13.546;2023-09-19T05:13:20;99664.00;;;17.90
4421;BMP180;11824;51.178;13.546;2023-09-19T05:15:51;99666.00;;;17.90
4421;BMP180;11824;51.178;13.546;2023-09-19T05:18:20;99667.00;;;17.90
4421;BMP180;11824;51.178;13.546;2023-09-19T05:20:49;99675.00;;;17.90
4421;BMP180;11824;51.178;13.546;2023-09-19T05:23:18;99675.00;;;18.00
4421;BMP180;11824;51.178;13.546;2023-09-19T05:25:50;99681.00;;;18.00
4421;BMP180;11824;51.178;13.546;2023-09-19T05:28:19;99680.00;;;18.00
4421;BMP180;11824;51.178;13.546;2023-09-19T05:30:48;99687.00;;;18.00
4421;BMP180;11824;51.178;13.546;2023-09-19T05:33:17;99690.00;;;18.00
4421;BMP180;11824;51.178;13.546;2023-09-19T05:35:50;99682.00;;;18.00
4421;BMP180;11824;51.178;13.546;2023-09-19T05:38:19;99689.00;;;18.10
4421;BMP180;11824;51.178;13.546;2023-09-19T05:40:51;99693.00;;;18.10
4421;BMP180;11824;51.178;13.546;2023-09-19T05:43:24;99705.00;;;18.10
4421;BMP180;11824;51.178;13.546;2023-09-19T05:46:00;99701.00;;;18.10
4421;BMP180;11824;51.178;13.546;2023-09-19T05:48:32;99690.00;;;18.20
4421;BMP180;11824;51.178;13.546;2023-09-19T05:51:04;99703.00;;;18.20
4421;BMP180;11824;51.178;13.546;2023-09-19T05:53:33;99706.00;;;18.20
4421;BMP180;11824;51.178;13.546;2023-09-19T05:56:04;99706.00;;;18.30
4421;BMP180;11824;51.178;13.546;2023-09-19T05:58:38;99718.00;;;18.30
4421;BMP180;11824;51.178;13.546;2023-09-19T06:01:08;99718.00;;;18.30
4421;BMP180;11824;51.178;13.546;2023-09-19T06:03:43;99724.00;;;18.40
4421;BMP180;11824;51.178;13.546;2023-09-19T06:06:18;99731.00;;;18.40
4421;BMP180;11824;51.178;13.546;2023-09-19T06:08:48;99731.00;;;18.50
4421;BMP180;11824;51.178;13.546;2023-09-19T06:11:21;99736.00;;;18.50
4421;BMP180;11824;51.178;13.546;2023-09-19T06:13:57;99739.00;;;18.60
4421;BMP180;11824;51.178;13.546;2023-09-19T06:16:30;99733.00;;;18.60
4421;BMP180;11824;51.178;13.546;2023-09-19T06:19:02;99732.00;;;18.60
4421;BMP180;11824;51.178;13.546;2023-09-19T06:21:34;99745.00;;;18.70
4421;BMP180;11824;51.178;13.546;2023-09-19T06:24:03;99754.00;;;18.70
4421;BMP180;11824;51.178;13.546;2023-09-19T06:26:35;99746.00;;;18.80
4421;BMP180;11824;51.178;13.546;2023-09-19T06:29:04;99749.00;;;18.80
4421;BMP180;11824;51.178;13.546;2023-09-19T06:31:39;99761.00;;;18.90
4421;BMP180;11824;51.178;13.546;2023-09-19T06:34:12;99765.00;;;18.90
4421;BMP180;11824;51.178;13.546;2023-09-19T06:36:43;99772.00;;;19.00
4421;BMP180;11824;51.178;13.546;2023-09-19T06:39:12;99771.00;;;19.10
4421;BMP180;11824;51.178;13.546;2023-09-19T06:41:42;99770.00;;;19.10
4421;BMP180;11824;51.178;13.546;2023-09-19T06:44:13;99760.00;;;19.20
4421;BMP180;11824;51.178;13.546;2023-09-19T06:46:42;99770.00;;;19.20
4421;BMP180;11824;51.178;13.546;2023-09-19T06:49:14;99778.00;;;19.30
4421;BMP180;11824;51.178;13.546;2023-09-19T06:51:43;99782.00;;;19.30
4421;BMP180;11824;51.178;13.546;2023-09-19T06:54:11;99793.00;;;19.40
4421;BMP180;11824;51.178;13.546;2023-09-19T06:56:42;99789.00;;;19.50
4421;BMP180;11824;51.178;13.546;2023-09-19T06:59:10;99798.00;;;19.60
4421;BMP180;11824;51.178;13.546;2023-09-19T07:01:41;99803.00;;;19.70
4421;BMP180;11824;51.178;13.546;2023-09-19T07:04:12;99810.00;;;19.70
4421;BMP180;11824;51.178;13.546;2023-09-19T07:06:42;99810.00;;;19.80
4421;BMP180;11824;51.178;13.546;2023-09-19T07:09:11;99821.00;;;19.80
4421;BMP180;11824;51.178;13.546;2023-09-19T07:11:41;99817.00;;;19.90
4421;BMP180;11824;51.178;13.546;2023-09-19T07:14:10;99809.00;;;19.90
4421;BMP180;11824;51.178;13.546;2023-09-19T07:16:39;99822.00;;;20.00
4421;BMP180;11824;51.178;13.546;2023-09-19T07:19:14;99836.00;;;20.00
4421;BMP180;11824;51.178;13.546;2023-09-19T07:21:43;99833.00;;;20.10
4421;BMP180;11824;51.178;13.546;2023-09-19T07:24:14;99835.00;;;20.10
4421;BMP180;11824;51.178;13.546;2023-09-19T07:26:46;99845.00;;;20.10
4421;BMP180;11824;51.178;13.546;2023-09-19T07:29:14;99850.00;;;20.20
4421;BMP180;11824;51.178;13.546;2023-09-19T07:31:43;99853.00;;;20.20
4421;BMP180;11824;51.178;13.546;2023-09-19T07:34:13;99850.00;;;20.30
4421;BMP180;11824;51.178;13.546;2023-09-19T07:36:42;99858.00;;;20.40
4421;BMP180;11824;51.178;13.546;2023-09-19T07:39:11;99849.00;;;20.40
4421;BMP180;11824;51.178;13.546;2023-09-19T07:41:51;99854.00;;;20.40
4421;BMP180;11824;51.178;13.546;2023-09-19T07:44:21;99852.00;;;20.50
4421;BMP180;11824;51.178;13.546;2023-09-19T07:46:50;99849.00;;;20.50
4421;BMP180;11824;51.178;13.546;2023-09-19T07:49:19;99860.00;;;20.50
4421;BMP180;11824;51.178;13.546;2023-09-19T07:51:49;99856.00;;;20.40
4421;BMP180;11824;51.178;13.546;2023-09-19T07:54:18;99853.00;;;20.40
4421;BMP180;11824;51.178;13.546;2023-09-19T07:56:47;99852.00;;;20.40
4421;BMP180;11824;51.178;13.546;2023-09-19T07:59:17;99857.00;;;20.40
4421;BMP180;11824;51.178;13.546;2023-09-19T08:01:46;99858.00;;;20.40
4421;BMP180;11824;51.178;13.546;2023-09-19T08:04:16;99866.00;;;20.40
4421;BMP180;11824;51.178;13.546;2023-09-19T08:06:45;99854.00;;;20.40
4421;BMP180;11824;51.178;13.546;2023-09-19T08:09:14;99860.00;;;20.40
4421;BMP180;11824;51.178;13.546;2023-09-19T08:11:52;99869.00;;;20.40
4421;BMP180;11824;51.178;13.546;2023-09-19T08:14:24;99873.00;;;20.50
4421;BMP180;11824;51.178;13.546;2023-09-19T08:16:57;99881.00;;;20.50
4421;BMP180;11824;51.178;13.546;2023-09-19T08:19:27;99866.00;;;20.60
4421;BMP180;11824;51.178;13.546;2023-09-19T08:21:58;99871.00;;;20.60
4421;BMP180;11824;51.178;13.546;2023-09-19T08:24:29;99869.00;;;20.70
4421;BMP180;11824;51.178;13.546;2023-09-19T08:26:58;99876.00;;;20.80
4421;BMP180;11824;51.178;13.546;2023-09-19T08:29:28;99874.00;;;20.90
4421;BMP180;11824;51.178;13.546;2023-09-19T08:32:00;99880.00;;;21.00
4421;BMP180;11824;51.178;13.546;2023-09-19T08:34:31;99886.00;;;21.10
4421;BMP180;11824;51.178;13.546;2023-09-19T08:37:02;99885.00;;;21.20
4421;BMP180;11824;51.178;13.546;2023-09-19T08:39:31;99886.00;;;21.20
4421;BMP180;11824;51.178;13.546;2023-09-19T08:42:01;99894.00;;;21.30
4421;BMP180;11824;51.178;13.546;2023-09-19T08:44:37;99892.00;;;21.40
4421;BMP180;11824;51.178;13.546;2023-09-19T08:47:15;99894.00;;;21.50
4421;BMP180;11824;51.178;13.546;2023-09-19T08:50:01;99905.00;;;21.70
4421;BMP180;11824;51.178;13.546;2023-09-19T08:52:40;99915.00;;;21.80
4421;BMP180;11824;51.178;13.546;2023-09-19T08:55:13;99914.00;;;21.90
4421;BMP180;11824;51.178;13.546;2023-09-19T08:57:50;99914.00;;;22.10
4421;BMP180;11824;51.178;13.546;2023-09-19T09:00:22;99920.00;;;22.20
4421;BMP180;11824;51.178;13.546;2023-09-19T09:02:56;99924.00;;;22.30
4421;BMP180;11824;51.178;13.546;2023-09-19T09:05:26;99921.00;;;22.40
4421;BMP180;11824;51.178;13.546;2023-09-19T09:07:57;99927.00;;;22.60
4421;BMP180;11824;51.178;13.546;2023-09-19T09:10:27;99926.00;;;22.80
4421;BMP180;11824;51.178;13.546;2023-09-19T09:12:57;99917.00;;;23.00
4421;BMP180;11824;51.178;13.546;2023-09-19T09:15:31;99920.00;;;23.10
4421;BMP180;11824;51.178;13.546;2023-09-19T09:18:00;99922.00;;;23.20
4421;BMP180;11824;51.178;13.546;2023-09-19T09:20:29;99911.00;;;23.30
4421;BMP180;11824;51.178;13.546;2023-09-19T09:22:58;99911.00;;;23.40
4421;BMP180;11824;51.178;13.546;2023-09-19T09:25:49;99901.00;;;23.40
4421;BMP180;11824;51.178;13.546;2023-09-19T09:28:25;99902.00;;;23.40
4421;BMP180;11824;51.178;13.546;2023-09-19T09:30:57;99916.00;;;23.40
4421;BMP180;11824;51.178;13.546;2023-09-19T09:33:26;99925.00;;;23.40
4421;BMP180;11824;51.178;13.546;2023-09-19T09:35:57;99927.00;;;23.40
4421;BMP180;11824;51.178;13.546;2023-09-19T09:38:30;99922.00;;;23.40
4421;BMP180;11824;51.178;13.546;2023-09-19T09:41:11;99930.00;;;23.40
4421;BMP180;11824;51.178;13.546;2023-09-19T09:43:43;99923.00;;;23.50
4421;BMP180;11824;51.178;13.546;2023-09-19T09:46:17;99925.00;;;23.60
4421;BMP180;11824;51.178;13.546;2023-09-19T09:49:06;99923.00;;;23.60
4421;BMP180;11824;51.178;13.546;2023-09-19T09:52:04;99925.00;;;23.60
4421;BMP180;11824;51.178;13.546;2023-09-19T09:54:38;99935.00;;;23.60
4421;BMP180;11824;51.178;13.546;2023-09-19T09:57:26;99921.00;;;23.60
4421;BMP180;11824;51.178;13.546;2023-09-19T09:59:58;99933.00;;;23.60
4421;BMP180;11824;51.178;13.546;2023-09-19T10:02:44;99930.00;;;23.60
4421;BMP180;11824;51.178;13.546;2023-09-19T10:05:15;99922.00;;;23.60
4421;BMP180;11824;51.178;13.546;2023-09-19T10:08:11;99920.00;;;23.60
4421;BMP180;11824;51.178;13.546;2023-09-19T10:10:47;99918.00;;;23.60
4421;BMP180;11824;51.178;13.546;2023-09-19T10:13:26;99930.00;;;23.70
4421;BMP180;11824;51.178;13.546;2023-09-19T10:15:59;99938.00;;;23.70
4421;BMP180;11824;51.178;13.546;2023-09-19T10:18:41;99939.00;;;23.70
4421;BMP180;11824;51.178;13.546;2023-09-19T10:21:14;99934.00;;;23.80
4421;BMP180;11824;51.178;13.546;2023-09-19T10:23:44;99927.00;;;23.80
4421;BMP180;11824;51.178;13.546;2023-09-19T10:26:18;99945.00;;;23.80
4421;BMP180;11824;51.178;13.546;2023-09-19T10:28:50;99944.00;;;23.90
4421;BMP180;11824;51.178;13.546;2023-09-19T10:31:22;99928.00;;;24.00
4421;BMP180;11824;51.178;13.546;2023-09-19T10:33:55;99936.00;;;24.10
4421;BMP180;11824;51.178;13.546;2023-09-19T10:36:25;99936.00;;;24.20
4421;BMP180;11824;51.178;13.546;2023-09-19T10:38:56;99922.00;;;24.20
4421;BMP180;11824;51.178;13.546;2023-09-19T10:41:30;99938.00;;;24.30
4421;BMP180;11824;51.178;13.546;2023-09-19T10:44:04;99923.00;;;24.30
4421;BMP180;11824;51.178;13.546;2023-09-19T10:46:34;99935.00;;;24.30
4421;BMP180;11824;51.178;13.546;2023-09-19T10:49:06;99935.00;;;24.30
4421;BMP180;11824;51.178;13.546;2023-09-19T10:51:41;99927.00;;;24.20
4421;BMP180;11824;51.178;13.546;2023-09-19T10:54:13;99928.00;;;24.10
4421;BMP180;11824;51.178;13.546;2023-09-19T10:56:45;99928.00;;;24.10
4421;BMP180;11824;51.178;13.546;2023-09-19T10:59:17;99922.00;;;24.00
4421;BMP180;11824;51.178;13.546;2023-09-19T11:01:47;99932.00;;;23.90
4421;BMP180;11824;51.178;13.546;2023-09-19T11:04:27;99938.00;;;23.90
4421;BMP180;11824;51.178;13.546;2023-09-19T11:07:02;99942.00;;;23.80
4421;BMP180;11824;51.178;13.546;2023-09-19T11:09:45;99939.00;;;23.80
4421;BMP180;11824;51.178;13.546;2023-09-19T11:12:49;99931.00;;;23.70
4421;BMP180;11824;51.178;13.546;2023-09-19T11:18:51;99931.00;;;23.70
4421;BMP180;11824;51.178;13.546;2023-09-19T11:21:55;99930.00;;;23.70
4421;BMP180;11824;51.178;13.546;2023-09-19T11:24:30;99930.00;;;23.70
4421;BMP180;11824;51.178;13.546;2023-09-19T11:27:15;99929.00;;;23.80
4421;BMP180;11824;51.178;13.546;2023-09-19T11:29:46;99933.00;;;23.80
4421;BMP180;11824;51.178;13.546;2023-09-19T11:32:16;99923.00;;;23.70
4421;BMP180;11824;51.178;13.546;2023-09-19T11:35:07;99929.00;;;23.70
4421;BMP180;11824;51.178;13.546;2023-09-19T11:38:02;99927.00;;;23.80
4421;BMP180;11824;51.178;13.546;2023-09-19T11:40:35;99932.00;;;23.80
4421;BMP180;11824;51.178;13.546;2023-09-19T11:43:28;99934.00;;;23.80
4421;BMP180;11824;51.178;13.546;2023-09-19T11:46:07;99941.00;;;23.80
4421;BMP180;11824;51.178;13.546;2023-09-19T11:48:39;99935.00;;;23.80
4421;BMP180;11824;51.178;13.546;2023-09-19T11:51:16;99938.00;;;23.80
4421;BMP180;11824;51.178;13.546;2023-09-19T11:53:53;99940.00;;;23.80
4421;BMP180;11824;51.178;13.546;2023-09-19T11:56:24;99937.00;;;23.80
4421;BMP180;11824;51.178;13.546;2023-09-19T11:58:55;99930.00;;;23.90
4421;BMP180;11824;51.178;13.546;2023-09-19T12:01:28;99931.00;;;23.90
4421;BMP180;11824;51.178;13.546;2023-09-19T12:04:00;99938.00;;;24.00
4421;BMP180;11824;51.178;13.546;2023-09-19T12:06:32;99927.00;;;24.00
4421;BMP180;11824;51.178;13.546;2023-09-19T12:09:14;99931.00;;;24.10
4421;BMP180;11824;51.178;13.546;2023-09-19T12:11:44;99939.00;;;24.10
4421;BMP180;11824;51.178;13.546;2023-09-19T12:14:22;99933.00;;;24.10
4421;BMP180;11824;51.178;13.546;2023-09-19T12:16:58;99928.00;;;24.10
4421;BMP180;11824;51.178;13.546;2023-09-19T12:19:28;99931.00;;;24.10
4421;BMP180;11824;51.178;13.546;2023-09-19T12:22:04;99925.00;;;24.10
4421;BMP180;11824;51.178;13.546;2023-09-19T12:24:34;99932.00;;;24.10
4421;BMP180;11824;51.178;13.546;2023-09-19T12:27:06;99938.00;;;24.20
4421;BMP180;11824;51.178;13.546;2023-09-19T12:29:43;99921.00;;;24.10
4421;BMP180;11824;51.178;13.546;2023-09-19T12:32:13;99936.00;;;24.10
4421;BMP180;11824;51.178;13.546;2023-09-19T12:34:51;99938.00;;;24.10
4421;BMP180;11824;51.178;13.546;2023-09-19T12:37:22;99931.00;;;24.10
4421;BMP180;11824;51.178;13.546;2023-09-19T12:40:05;99934.00;;;24.10
4421;BMP180;11824;51.178;13.546;2023-09-19T12:42:46;99936.00;;;24.20
4421;BMP180;11824;51.178;13.546;2023-09-19T12:45:15;99929.00;;;24.20
4421;BMP180;11824;51.178;13.546;2023-09-19T12:48:18;99927.00;;;24.20
4421;BMP180;11824;51.178;13.546;2023-09-19T12:51:05;99936.00;;;24.30
4421;BMP180;11824;51.178;13.546;2023-09-19T12:53:37;99937.00;;;24.30
4421;BMP180;11824;51.178;13.546;2023-09-19T12:56:11;99939.00;;;24.30
4421;BMP180;11824;51.178;13.546;2023-09-19T12:58:55;99941.00;;;24.30
4421;BMP180;11824;51.178;13.546;2023-09-19T13:01:27;99941.00;;;24.30
4421;BMP180;11824;51.178;13.546;2023-09-19T13:04:13;99935.00;;;24.20
4421;BMP180;11824;51.178;13.546;2023-09-19T13:06:46;99932.00;;;24.20
4421;BMP180;11824;51.178;13.546;2023-09-19T13:09:18;99933.00;;;24.20
4421;BMP180;11824;51.178;13.546;2023-09-19T13:11:49;99926.00;;;24.10
4421;BMP180;11824;51.178;13.546;2023-09-19T13:14:22;99919.00;;;24.10
4421;BMP180;11824;51.178;13.546;2023-09-19T13:16:57;99923.00;;;24.00
4421;BMP180;11824;51.178;13.546;2023-09-19T13:19:39;99925.00;;;24.00
4421;BMP180;11824;51.178;13.546;2023-09-19T13:22:37;99927.00;;;24.00
4421;BMP180;11824;51.178;13.546;2023-09-19T13:25:08;99928.00;;;24.00
4421;BMP180;11824;51.178;13.546;2023-09-19T13:27:44;99921.00;;;24.00
4421;BMP180;11824;51.178;13.546;2023-09-19T13:30:14;99918.00;;;24.00
4421;BMP180;11824;51.178;13.546;2023-09-19T13:32:43;99921.00;;;24.00
4421;BMP180;11824;51.178;13.546;2023-09-19T13:35:12;99919.00;;;24.10
4421;BMP180;11824;51.178;13.546;2023-09-19T13:37:42;99913.00;;;24.10
4421;BMP180;11824;51.178;13.546;2023-09-19T13:40:14;99923.00;;;24.10
4421;BMP180;11824;51.178;13.546;2023-09-19T13:42:45;99919.00;;;24.10
4421;BMP180;11824;51.178;13.546;2023-09-19T13:45:14;99926.00;;;24.10
4421;BMP180;11824;51.178;13.546;2023-09-19T13:47:45;99933.00;;;24.10
4421;BMP180;11824;51.178;13.546;2023-09-19T13:50:15;99924.00;;;24.20
4421;BMP180;11824;51.178;13.546;2023-09-19T13:52:46;99928.00;;;24.30
4421;BMP180;11824;51.178;13.546;2023-09-19T13:55:15;99927.00;;;24.30
4421;BMP180;11824;51.178;13.546;2023-09-19T13:57:49;99927.00;;;24.30
4421;BMP180;11824;51.178;13.546;2023-09-19T14:00:20;99925.00;;;24.20
4421;BMP180;11824;51.178;13.546;2023-09-19T14:02:50;99920.00;;;24.20
4421;BMP180;11824;51.178;13.546;2023-09-19T14:05:20;99925.00;;;24.20
4421;BMP180;11824;51.178;13.546;2023-09-19T14:07:49;99915.00;;;24.20
4421;BMP180;11824;51.178;13.546;2023-09-19T14:10:18;99918.00;;;24.20
4421;BMP180;11824;51.178;13.546;2023-09-19T14:12:49;99913.00;;;24.10
4421;BMP180;11824;51.178;13.546;2023-09-19T14:15:20;99914.00;;;24.10
4421;BMP180;11824;51.178;13.546;2023-09-19T14:17:57;99915.00;;;24.10
4421;BMP180;11824;51.178;13.546;2023-09-19T14:20:28;99904.00;;;24.10
4421;BMP180;11824;51.178;13.546;2023-09-19T14:22:58;99904.00;;;24.00
4421;BMP180;11824;51.178;13.546;2023-09-19T14:25:28;99906.00;;;24.00
4421;BMP180;11824;51.178;13.546;2023-09-19T14:27:59;99903.00;;;24.00
4421;BMP180;11824;51.178;13.546;2023-09-19T14:30:28;99900.00;;;23.90
4421;BMP180;11824;51.178;13.546;2023-09-19T14:32:57;99883.00;;;24.00
4421;BMP180;11824;51.178;13.546;2023-09-19T14:35:26;99888.00;;;23.90
4421;BMP180;11824;51.178;13.546;2023-09-19T14:37:58;99900.00;;;23.90
4421;BMP180;11824;51.178;13.546;2023-09-19T14:40:27;99894.00;;;23.90
4421;BMP180;11824;51.178;13.546;2023-09-19T14:42:58;99890.00;;;23.90
4421;BMP180;11824;51.178;13.546;2023-09-19T14:45:27;99894.00;;;23.90
4421;BMP180;11824;51.178;13.546;2023-09-19T14:47:56;99886.00;;;23.90
4421;BMP180;11824;51.178;13.546;2023-09-19T14:50:25;99887.00;;;23.90